sensor_id;sensor_type;location;lat;lon;timestamp;P1;durP1;ratioP1;P2;durP2;ratioP2
1276;SDS011;631;51.024;13.826;2023-08-06T00:00:20;20.97;;;19.37;;
1276;SDS011;631;51.024;13.826;2023-08-06T00:02:47;20.67;;;19.07;;
1276;SDS011;631;51.024;13.826;2023-08-06T00:05:13;19.60;;;18.27;;
1276;SDS011;631;51.024;13.826;2023-08-06T00:07:42;20.53;;;19.03;;
1276;SDS011;631;51.024;13.826;2023-08-06T00:10:11;19.30;;;17.90;;
1276;SDS011;631;51.024;13.826;2023-08-06T00:12:37;20.40;;;18.57;;
1276;SDS011;631;51.024;13.826;2023-08-06T00:15:03;21.03;;;19.33;;
1276;SDS011;631;51.024;13.826;2023-08-06T00:17:29;19.53;;;18.23;;
1276;SDS011;631;51.024;13.826;2023-08-06T00:19:54;20.10;;;18.70;;
1276;SDS011;631;51.024;13.826;2023-08-06T00:22:20;20.00;;;18.60;;
1276;SDS011;631;51.024;13.826;2023-08-06T00:24:45;20.30;;;18.90;;
1276;SDS011;631;51.024;13.826;2023-08-06T00:27:11;19.53;;;18.03;;
1276;SDS011;631;51.024;13.826;2023-08-06T00:29:36;20.33;;;18.53;;
1276;SDS011;631;51.024;13.826;2023-08-06T00:32:02;19.33;;;17.87;;
1276;SDS011;631;51.024;13.826;2023-08-06T00:34:28;20.70;;;19.10;;
1276;SDS011;631;51.024;13.826;2023-08-06T00:36:53;19.30;;;17.90;;
1276;SDS011;631;51.024;13.826;2023-08-06T00:39:19;20.37;;;18.87;;
1276;SDS011;631;51.024;13.826;2023-08-06T00:41:45;20.03;;;18.50;;
1276;SDS011;631;51.024;13.826;2023-08-06T00:44:10;19.00;;;17.60;;
1276;SDS011;631;51.024;13.826;2023-08-06T00:46:36;20.63;;;19.10;;
1276;SDS011;631;51.024;13.826;2023-08-06T00:49:02;19.73;;;18.23;;
1276;SDS011;631;51.024;13.826;2023-08-06T00:51:28;19.73;;;18.23;;
1276;SDS011;631;51.024;13.826;2023-08-06T00:53:54;20.30;;;18.80;;
1276;SDS011;631;51.024;13.826;2023-08-06T00:56:20;20.50;;;18.80;;
1276;SDS011;631;51.024;13.826;2023-08-06T00:58:46;19.00;;;17.70;;
1276;SDS011;631;51.024;13.826;2023-08-06T01:01:12;19.90;;;18.50;;
1276;SDS011;631;51.024;13.826;2023-08-06T01:03:38;21.60;;;20.00;;
1276;SDS011;631;51.024;13.826;2023-08-06T01:06:03;19.80;;;18.30;;
1276;SDS011;631;51.024;13.826;2023-08-06T01:08:48;20.30;;;18.80;;
1276;SDS011;631;51.024;13.826;2023-08-06T01:14:08;20.47;;;18.87;;
1276;SDS011;631;51.024;13.826;2023-08-06T01:16:36;20.63;;;19.03;;
1276;SDS011;631;51.024;13.826;2023-08-06T01:19:04;18.90;;;17.50;;
1276;SDS011;631;51.024;13.826;2023-08-06T01:21:40;19.53;;;18.13;;
1276;SDS011;631;51.024;13.826;2023-08-06T01:24:05;19.60;;;18.20;;
1276;SDS011;631;51.024;13.826;2023-08-06T01:26:39;18.50;;;17.20;;
1276;SDS011;631;51.024;13.826;2023-08-06T01:29:14;19.13;;;17.73;;
1276;SDS011;631;51.024;13.826;2023-08-06T01:31:44;18.37;;;17.17;;
1276;SDS011;631;51.024;13.826;2023-08-06T01:34:19;20.20;;;18.80;;
1276;SDS011;631;51.024;13.826;2023-08-06T01:36:47;18.60;;;17.10;;
1276;SDS011;631;51.024;13.826;2023-08-06T01:39:13;19.17;;;17.67;;
1276;SDS011;631;51.024;13.826;2023-08-06T01:41:39;19.37;;;17.97;;
1276;SDS011;631;51.024;13.826;2023-08-06T01:44:04;19.30;;;18.00;;
1276;SDS011;631;51.024;13.826;2023-08-06T01:46:30;19.60;;;18.10;;
1276;SDS011;631;51.024;13.826;2023-08-06T01:48:56;20.07;;;18.57;;
1276;SDS011;631;51.024;13.826;2023-08-06T01:51:21;19.67;;;18.07;;
1276;SDS011;631;51.024;13.826;2023-08-06T01:53:47;20.10;;;18.60;;
1276;SDS011;631;51.024;13.826;2023-08-06T01:56:12;20.33;;;18.73;;
1276;SDS011;631;51.024;13.826;2023-08-06T01:58:38;21.00;;;19.30;;
1276;SDS011;631;51.024;13.826;2023-08-06T02:01:04;20.17;;;18.60;;
1276;SDS011;631;51.024;13.826;2023-08-06T02:03:30;20.00;;;18.50;;
1276;SDS011;631;51.024;13.826;2023-08-06T02:05:55;20.93;;;19.13;;
1276;SDS011;631;51.024;13.826;2023-08-06T02:08:21;20.73;;;19.23;;
1276;SDS011;631;51.024;13.826;2023-08-06T02:10:47;19.83;;;18.27;;
1276;SDS011;631;51.024;13.826;2023-08-06T02:13:12;20.13;;;18.60;;
1276;SDS011;631;51.024;13.826;2023-08-06T02:15:44;19.20;;;17.80;;
1276;SDS011;631;51.024;13.826;2023-08-06T02:18:12;19.00;;;17.50;;
1276;SDS011;631;51.024;13.826;2023-08-06T02:20:39;19.40;;;17.90;;
1276;SDS011;631;51.024;13.826;2023-08-06T02:23:05;19.63;;;18.23;;
1276;SDS011;631;51.024;13.826;2023-08-06T02:25:31;19.63;;;18.23;;
1276;SDS011;631;51.024;13.826;2023-08-06T02:27:56;19.63;;;18.13;;
1276;SDS011;631;51.024;13.826;2023-08-06T02:30:22;20.33;;;18.73;;
1276;SDS011;631;51.024;13.826;2023-08-06T02:32:47;20.33;;;18.77;;
1276;SDS011;631;51.024;13.826;2023-08-06T02:35:13;19.87;;;18.47;;
1276;SDS011;631;51.024;13.826;2023-08-06T02:37:38;20.77;;;19.17;;
1276;SDS011;631;51.024;13.826;2023-08-06T02:40:04;20.50;;;18.90;;
1276;SDS011;631;51.024;13.826;2023-08-06T02:42:30;21.23;;;19.73;;
1276;SDS011;631;51.024;13.826;2023-08-06T02:44:56;20.70;;;19.20;;
1276;SDS011;631;51.024;13.826;2023-08-06T02:47:21;21.80;;;20.00;;
1276;SDS011;631;51.024;13.826;2023-08-06T02:49:47;21.13;;;19.60;;
1276;SDS011;631;51.024;13.826;2023-08-06T02:52:13;21.43;;;19.83;;
1276;SDS011;631;51.024;13.826;2023-08-06T02:54:38;21.63;;;20.00;;
1276;SDS011;631;51.024;13.826;2023-08-06T02:57:04;21.20;;;19.60;;
1276;SDS011;631;51.024;13.826;2023-08-06T02:59:30;20.80;;;19.20;;
1276;SDS011;631;51.024;13.826;2023-08-06T03:01:56;21.73;;;20.03;;
1276;SDS011;631;51.024;13.826;2023-08-06T03:04:22;21.20;;;19.50;;
1276;SDS011;631;51.024;13.826;2023-08-06T03:06:51;22.13;;;20.53;;
1276;SDS011;631;51.024;13.826;2023-08-06T03:09:17;20.83;;;19.23;;
1276;SDS011;631;51.024;13.826;2023-08-06T03:11:43;22.53;;;20.77;;
1276;SDS011;631;51.024;13.826;2023-08-06T03:14:08;21.33;;;19.73;;
1276;SDS011;631;51.024;13.826;2023-08-06T03:16:34;21.43;;;19.80;;
1276;SDS011;631;51.024;13.826;2023-08-06T03:19:00;21.60;;;19.80;;
1276;SDS011;631;51.024;13.826;2023-08-06T03:21:26;21.50;;;19.80;;
1276;SDS011;631;51.024;13.826;2023-08-06T03:23:51;21.50;;;19.60;;
1276;SDS011;631;51.024;13.826;2023-08-06T03:26:17;21.17;;;19.33;;
1276;SDS011;631;51.024;13.826;2023-08-06T03:28:42;21.33;;;19.63;;
1276;SDS011;631;51.024;13.826;2023-08-06T03:31:08;21.17;;;19.57;;
1276;SDS011;631;51.024;13.826;2023-08-06T03:33:34;19.40;;;17.90;;
1276;SDS011;631;51.024;13.826;2023-08-06T03:35:59;20.37;;;18.67;;
1276;SDS011;631;51.024;13.826;2023-08-06T03:38:25;21.20;;;19.53;;
1276;SDS011;631;51.024;13.826;2023-08-06T03:40:51;22.07;;;20.30;;
1276;SDS011;631;51.024;13.826;2023-08-06T03:43:16;21.50;;;19.90;;
1276;SDS011;631;51.024;13.826;2023-08-06T03:45:42;20.13;;;18.60;;
1276;SDS011;631;51.024;13.826;2023-08-06T03:48:08;20.33;;;18.63;;
1276;SDS011;631;51.024;13.826;2023-08-06T03:50:34;20.97;;;19.33;;
1276;SDS011;631;51.024;13.826;2023-08-06T03:53:00;20.50;;;18.80;;
1276;SDS011;631;51.024;13.826;2023-08-06T03:55:25;21.00;;;19.30;;
1276;SDS011;631;51.024;13.826;2023-08-06T03:57:51;20.23;;;18.70;;
1276;SDS011;631;51.024;13.826;2023-08-06T04:00:17;21.50;;;19.90;;
1276;SDS011;631;51.024;13.826;2023-08-06T04:02:43;21.00;;;19.40;;
1276;SDS011;631;51.024;13.826;2023-08-06T04:05:08;21.43;;;19.83;;
1276;SDS011;631;51.024;13.826;2023-08-06T04:07:34;19.23;;;17.93;;
1276;SDS011;631;51.024;13.826;2023-08-06T04:10:01;20.80;;;19.30;;
1276;SDS011;631;51.024;13.826;2023-08-06T04:12:28;21.90;;;20.20;;
1276;SDS011;631;51.024;13.826;2023-08-06T04:14:54;21.43;;;19.93;;
1276;SDS011;631;51.024;13.826;2023-08-06T04:17:21;21.60;;;19.97;;
1276;SDS011;631;51.024;13.826;2023-08-06T04:19:47;21.33;;;19.83;;
1276;SDS011;631;51.024;13.826;2023-08-06T04:22:15;21.23;;;19.43;;
1276;SDS011;631;51.024;13.826;2023-08-06T04:24:41;21.83;;;20.23;;
1276;SDS011;631;51.024;13.826;2023-08-06T04:27:08;21.90;;;20.30;;
1276;SDS011;631;51.024;13.826;2023-08-06T04:29:34;21.70;;;20.17;;
1276;SDS011;631;51.024;13.826;2023-08-06T04:32:00;21.70;;;20.00;;
1276;SDS011;631;51.024;13.826;2023-08-06T04:34:25;21.17;;;19.67;;
1276;SDS011;631;51.024;13.826;2023-08-06T04:36:51;20.93;;;19.43;;
1276;SDS011;631;51.024;13.826;2023-08-06T04:39:17;20.60;;;19.00;;
1276;SDS011;631;51.024;13.826;2023-08-06T04:41:42;20.20;;;18.83;;
1276;SDS011;631;51.024;13.826;2023-08-06T04:44:08;20.03;;;18.73;;
1276;SDS011;631;51.024;13.826;2023-08-06T04:46:34;20.17;;;18.67;;
1276;SDS011;631;51.024;13.826;2023-08-06T04:48:59;20.80;;;19.40;;
1276;SDS011;631;51.024;13.826;2023-08-06T04:51:25;19.53;;;18.23;;
1276;SDS011;631;51.024;13.826;2023-08-06T04:53:50;19.53;;;18.23;;
1276;SDS011;631;51.024;13.826;2023-08-06T04:56:16;18.87;;;17.67;;
1276;SDS011;631;51.024;13.826;2023-08-06T04:58:41;19.47;;;18.17;;
1276;SDS011;631;51.024;13.826;2023-08-06T05:01:07;18.93;;;17.70;;
1276;SDS011;631;51.024;13.826;2023-08-06T05:03:33;18.67;;;17.50;;
1276;SDS011;631;51.024;13.826;2023-08-06T05:05:58;18.33;;;17.20;;
1276;SDS011;631;51.024;13.826;2023-08-06T05:08:24;18.77;;;17.40;;
1276;SDS011;631;51.024;13.826;2023-08-06T05:10:49;19.00;;;17.80;;
1276;SDS011;631;51.024;13.826;2023-08-06T05:13:15;17.70;;;16.60;;
1276;SDS011;631;51.024;13.826;2023-08-06T05:15:41;18.70;;;17.40;;
1276;SDS011;631;51.024;13.826;2023-08-06T05:18:07;19.67;;;18.40;;
1276;SDS011;631;51.024;13.826;2023-08-06T05:20:37;19.00;;;17.60;;
1276;SDS011;631;51.024;13.826;2023-08-06T05:23:03;18.40;;;17.30;;
1276;SDS011;631;51.024;13.826;2023-08-06T05:25:29;19.20;;;18.00;;
1276;SDS011;631;51.024;13.826;2023-08-06T05:27:55;19.17;;;17.90;;
1276;SDS011;631;51.024;13.826;2023-08-06T05:30:20;19.90;;;18.50;;
1276;SDS011;631;51.024;13.826;2023-08-06T05:32:46;19.80;;;18.50;;
1276;SDS011;631;51.024;13.826;2023-08-06T05:35:12;19.57;;;18.37;;
1276;SDS011;631;51.024;13.826;2023-08-06T05:37:37;18.03;;;16.90;;
1276;SDS011;631;51.024;13.826;2023-08-06T05:40:03;19.63;;;18.23;;
1276;SDS011;631;51.024;13.826;2023-08-06T05:42:29;20.50;;;19.10;;
1276;SDS011;631;51.024;13.826;2023-08-06T05:44:55;18.53;;;17.30;;
1276;SDS011;631;51.024;13.826;2023-08-06T05:47:20;19.07;;;17.90;;
1276;SDS011;631;51.024;13.826;2023-08-06T05:49:46;18.97;;;17.77;;
1276;SDS011;631;51.024;13.826;2023-08-06T05:52:12;19.20;;;17.80;;
1276;SDS011;631;51.024;13.826;2023-08-06T05:54:38;18.53;;;17.43;;
1276;SDS011;631;51.024;13.826;2023-08-06T05:57:03;18.70;;;17.60;;
1276;SDS011;631;51.024;13.826;2023-08-06T05:59:29;18.63;;;17.53;;
1276;SDS011;631;51.024;13.826;2023-08-06T06:01:55;18.90;;;17.80;;
1276;SDS011;631;51.024;13.826;2023-08-06T06:04:21;19.47;;;18.27;;
1276;SDS011;631;51.024;13.826;2023-08-06T06:06:46;19.60;;;18.37;;
1276;SDS011;631;51.024;13.826;2023-08-06T06:09:12;19.10;;;17.80;;
1276;SDS011;631;51.024;13.826;2023-08-06T06:11:37;19.10;;;17.90;;
1276;SDS011;631;51.024;13.826;2023-08-06T06:14:03;19.87;;;18.57;;
1276;SDS011;631;51.024;13.826;2023-08-06T06:16:28;19.17;;;17.97;;
1276;SDS011;631;51.024;13.826;2023-08-06T06:18:54;19.30;;;18.03;;
1276;SDS011;631;51.024;13.826;2023-08-06T06:21:20;19.23;;;17.83;;
1276;SDS011;631;51.024;13.826;2023-08-06T06:23:46;20.30;;;18.90;;
1276;SDS011;631;51.024;13.826;2023-08-06T06:26:12;19.63;;;18.13;;
1276;SDS011;631;51.024;13.826;2023-08-06T06:28:38;19.30;;;18.00;;
1276;SDS011;631;51.024;13.826;2023-08-06T06:31:04;19.93;;;18.60;;
1276;SDS011;631;51.024;13.826;2023-08-06T06:33:29;20.43;;;18.87;;
1276;SDS011;631;51.024;13.826;2023-08-06T06:35:55;20.67;;;19.27;;
1276;SDS011;631;51.024;13.826;2023-08-06T06:38:20;19.50;;;18.20;;
1276;SDS011;631;51.024;13.826;2023-08-06T06:40:55;19.90;;;18.30;;
1276;SDS011;631;51.024;13.826;2023-08-06T06:43:21;20.23;;;18.80;;
1276;SDS011;631;51.024;13.826;2023-08-06T06:45:52;18.43;;;17.23;;
1276;SDS011;631;51.024;13.826;2023-08-06T06:48:22;19.90;;;18.60;;
1276;SDS011;631;51.024;13.826;2023-08-06T06:50:48;19.07;;;17.77;;
1276;SDS011;631;51.024;13.826;2023-08-06T06:53:14;18.30;;;17.10;;
1276;SDS011;631;51.024;13.826;2023-08-06T06:55:39;19.10;;;17.80;;
1276;SDS011;631;51.024;13.826;2023-08-06T06:58:05;18.70;;;17.50;;
1276;SDS011;631;51.024;13.826;2023-08-06T07:00:30;17.80;;;16.70;;
1276;SDS011;631;51.024;13.826;2023-08-06T07:02:56;17.03;;;16.03;;
1276;SDS011;631;51.024;13.826;2023-08-06T07:05:22;17.80;;;16.70;;
1276;SDS011;631;51.024;13.826;2023-08-06T07:07:47;17.33;;;16.23;;
1276;SDS011;631;51.024;13.826;2023-08-06T07:10:13;18.10;;;16.90;;
1276;SDS011;631;51.024;13.826;2023-08-06T07:12:38;18.13;;;17.07;;
1276;SDS011;631;51.024;13.826;2023-08-06T07:15:05;17.83;;;16.73;;
1276;SDS011;631;51.024;13.826;2023-08-06T07:17:31;17.37;;;16.37;;
1276;SDS011;631;51.024;13.826;2023-08-06T07:19:57;17.90;;;16.80;;
1276;SDS011;631;51.024;13.826;2023-08-06T07:22:23;19.03;;;17.77;;
1276;SDS011;631;51.024;13.826;2023-08-06T07:24:49;18.30;;;17.20;;
1276;SDS011;631;51.024;13.826;2023-08-06T07:27:14;18.23;;;17.13;;
1276;SDS011;631;51.024;13.826;2023-08-06T07:29:40;18.87;;;17.67;;
1276;SDS011;631;51.024;13.826;2023-08-06T07:32:06;18.03;;;16.97;;
1276;SDS011;631;51.024;13.826;2023-08-06T07:34:32;18.40;;;17.30;;
1276;SDS011;631;51.024;13.826;2023-08-06T07:36:58;18.87;;;17.67;;
1276;SDS011;631;51.024;13.826;2023-08-06T07:39:23;18.10;;;17.00;;
1276;SDS011;631;51.024;13.826;2023-08-06T07:41:49;19.23;;;17.90;;
1276;SDS011;631;51.024;13.826;2023-08-06T07:44:15;19.57;;;18.37;;
1276;SDS011;631;51.024;13.826;2023-08-06T07:46:40;20.17;;;18.77;;
1276;SDS011;631;51.024;13.826;2023-08-06T07:49:06;19.47;;;18.17;;
1276;SDS011;631;51.024;13.826;2023-08-06T07:51:32;20.00;;;18.80;;
1276;SDS011;631;51.024;13.826;2023-08-06T07:53:57;19.10;;;18.00;;
1276;SDS011;631;51.024;13.826;2023-08-06T07:56:23;20.90;;;19.40;;
1276;SDS011;631;51.024;13.826;2023-08-06T07:58:49;20.07;;;18.83;;
1276;SDS011;631;51.024;13.826;2023-08-06T08:01:14;20.60;;;19.00;;
1276;SDS011;631;51.024;13.826;2023-08-06T08:03:40;19.30;;;18.10;;
1276;SDS011;631;51.024;13.826;2023-08-06T08:06:05;18.83;;;17.63;;
1276;SDS011;631;51.024;13.826;2023-08-06T08:08:31;19.83;;;18.63;;
1276;SDS011;631;51.024;13.826;2023-08-06T08:10:57;20.53;;;19.27;;
1276;SDS011;631;51.024;13.826;2023-08-06T08:13:24;20.03;;;18.73;;
1276;SDS011;631;51.024;13.826;2023-08-06T08:15:49;19.73;;;18.53;;
1276;SDS011;631;51.024;13.826;2023-08-06T08:18:15;20.33;;;19.03;;
1276;SDS011;631;51.024;13.826;2023-08-06T08:20:41;20.60;;;19.30;;
1276;SDS011;631;51.024;13.826;2023-08-06T08:23:06;19.23;;;18.13;;
1276;SDS011;631;51.024;13.826;2023-08-06T08:25:32;19.00;;;17.90;;
1276;SDS011;631;51.024;13.826;2023-08-06T08:27:59;18.30;;;17.20;;
1276;SDS011;631;51.024;13.826;2023-08-06T08:30:24;19.90;;;18.70;;
1276;SDS011;631;51.024;13.826;2023-08-06T08:32:50;20.50;;;19.10;;
1276;SDS011;631;51.024;13.826;2023-08-06T08:35:16;18.80;;;17.60;;
1276;SDS011;631;51.024;13.826;2023-08-06T08:37:42;19.80;;;18.50;;
1276;SDS011;631;51.024;13.826;2023-08-06T08:40:08;19.33;;;18.13;;
1276;SDS011;631;51.024;13.826;2023-08-06T08:42:35;18.13;;;17.07;;
1276;SDS011;631;51.024;13.826;2023-08-06T08:45:02;19.27;;;18.00;;
1276;SDS011;631;51.024;13.826;2023-08-06T08:47:35;18.40;;;17.40;;
1276;SDS011;631;51.024;13.826;2023-08-06T08:50:01;18.63;;;17.53;;
1276;SDS011;631;51.024;13.826;2023-08-06T08:52:29;18.60;;;17.57;;
1276;SDS011;631;51.024;13.826;2023-08-06T08:54:56;18.60;;;17.60;;
1276;SDS011;631;51.024;13.826;2023-08-06T08:57:24;18.37;;;17.20;;
1276;SDS011;631;51.024;13.826;2023-08-06T08:59:50;17.37;;;16.47;;
1276;SDS011;631;51.024;13.826;2023-08-06T09:02:15;17.17;;;16.27;;
1276;SDS011;631;51.024;13.826;2023-08-06T09:04:42;17.27;;;16.27;;
1276;SDS011;631;51.024;13.826;2023-08-06T09:07:10;17.13;;;16.23;;
1276;SDS011;631;51.024;13.826;2023-08-06T09:09:41;16.00;;;15.20;;
1276;SDS011;631;51.024;13.826;2023-08-06T09:12:15;16.53;;;15.63;;
1276;SDS011;631;51.024;13.826;2023-08-06T09:14:41;17.00;;;16.10;;
1276;SDS011;631;51.024;13.826;2023-08-06T09:17:08;17.23;;;16.33;;
1276;SDS011;631;51.024;13.826;2023-08-06T09:19:35;15.20;;;14.50;;
1276;SDS011;631;51.024;13.826;2023-08-06T09:22:01;16.87;;;15.97;;
1276;SDS011;631;51.024;13.826;2023-08-06T09:24:27;17.43;;;16.53;;
1276;SDS011;631;51.024;13.826;2023-08-06T09:26:53;16.90;;;16.00;;
1276;SDS011;631;51.024;13.826;2023-08-06T09:29:19;16.23;;;15.40;;
1276;SDS011;631;51.024;13.826;2023-08-06T09:31:48;17.63;;;16.73;;
1276;SDS011;631;51.024;13.826;2023-08-06T09:34:19;16.77;;;15.90;;
1276;SDS011;631;51.024;13.826;2023-08-06T09:36:50;16.90;;;16.03;;
1276;SDS011;631;51.024;13.826;2023-08-06T09:39:21;16.70;;;15.80;;
1276;SDS011;631;51.024;13.826;2023-08-06T09:41:52;17.30;;;16.30;;
1276;SDS011;631;51.024;13.826;2023-08-06T09:44:24;16.50;;;15.60;;
1276;SDS011;631;51.024;13.826;2023-08-06T09:46:52;16.53;;;15.60;;
1276;SDS011;631;51.024;13.826;2023-08-06T09:49:19;17.20;;;16.30;;
1276;SDS011;631;51.024;13.826;2023-08-06T09:51:48;17.70;;;16.70;;
1276;SDS011;631;51.024;13.826;2023-08-06T09:54:16;16.77;;;15.87;;
1276;SDS011;631;51.024;13.826;2023-08-06T09:56:44;16.77;;;15.77;;
1276;SDS011;631;51.024;13.826;2023-08-06T09:59:09;16.87;;;15.97;;
1276;SDS011;631;51.024;13.826;2023-08-06T10:01:36;16.60;;;15.70;;
1276;SDS011;631;51.024;13.826;2023-08-06T10:04:05;15.73;;;14.93;;
1276;SDS011;631;51.024;13.826;2023-08-06T10:06:36;15.60;;;14.73;;
1276;SDS011;631;51.024;13.826;2023-08-06T10:09:02;16.07;;;15.07;;
1276;SDS011;631;51.024;13.826;2023-08-06T10:11:29;15.00;;;14.20;;
1276;SDS011;631;51.024;13.826;2023-08-06T10:14:04;14.80;;;14.00;;
1276;SDS011;631;51.024;13.826;2023-08-06T10:16:37;14.60;;;13.80;;
1276;SDS011;631;51.024;13.826;2023-08-06T10:19:05;15.60;;;14.70;;
1276;SDS011;631;51.024;13.826;2023-08-06T10:21:32;14.87;;;14.03;;
1276;SDS011;631;51.024;13.826;2023-08-06T10:23:57;14.23;;;13.43;;
1276;SDS011;631;51.024;13.826;2023-08-06T10:26:26;14.60;;;13.80;;
1276;SDS011;631;51.024;13.826;2023-08-06T10:28:53;14.53;;;13.83;;
1276;SDS011;631;51.024;13.826;2023-08-06T10:31:19;13.93;;;13.23;;
1276;SDS011;631;51.024;13.826;2023-08-06T10:33:45;14.03;;;13.23;;
1276;SDS011;631;51.024;13.826;2023-08-06T10:36:12;14.60;;;13.80;;
1276;SDS011;631;51.024;13.826;2023-08-06T10:38:45;14.30;;;13.60;;
1276;SDS011;631;51.024;13.826;2023-08-06T10:41:15;14.27;;;13.57;;
1276;SDS011;631;51.024;13.826;2023-08-06T10:43:48;13.73;;;13.13;;
1276;SDS011;631;51.024;13.826;2023-08-06T10:46:21;13.90;;;13.20;;
1276;SDS011;631;51.024;13.826;2023-08-06T10:48:53;14.43;;;13.73;;
1276;SDS011;631;51.024;13.826;2023-08-06T10:51:19;14.23;;;13.53;;
1276;SDS011;631;51.024;13.826;2023-08-06T10:53:45;13.67;;;12.97;;
1276;SDS011;631;51.024;13.826;2023-08-06T10:56:14;14.23;;;13.43;;
1276;SDS011;631;51.024;13.826;2023-08-06T10:58:41;13.80;;;13.10;;
1276;SDS011;631;51.024;13.826;2023-08-06T11:01:07;14.90;;;14.10;;
1276;SDS011;631;51.024;13.826;2023-08-06T11:03:33;12.90;;;12.30;;
1276;SDS011;631;51.024;13.826;2023-08-06T11:05:59;13.90;;;13.20;;
1276;SDS011;631;51.024;13.826;2023-08-06T11:10:51;13.77;;;12.70;;
1276;SDS011;631;51.024;13.826;2023-08-06T11:13:17;13.70;;;13.00;;
1276;SDS011;631;51.024;13.826;2023-08-06T11:15:44;14.07;;;13.37;;
1276;SDS011;631;51.024;13.826;2023-08-06T11:18:10;13.67;;;12.87;;
1276;SDS011;631;51.024;13.826;2023-08-06T11:20:36;14.80;;;14.00;;
1276;SDS011;631;51.024;13.826;2023-08-06T11:23:02;14.90;;;14.00;;
1276;SDS011;631;51.024;13.826;2023-08-06T11:25:28;13.53;;;12.83;;
1276;SDS011;631;51.024;13.826;2023-08-06T11:27:54;14.20;;;13.30;;
1276;SDS011;631;51.024;13.826;2023-08-06T11:30:19;13.80;;;13.20;;
1276;SDS011;631;51.024;13.826;2023-08-06T11:32:45;13.33;;;12.73;;
1276;SDS011;631;51.024;13.826;2023-08-06T11:35:12;14.30;;;13.40;;
1276;SDS011;631;51.024;13.826;2023-08-06T11:37:38;14.07;;;13.37;;
1276;SDS011;631;51.024;13.826;2023-08-06T11:40:08;14.20;;;13.50;;
1276;SDS011;631;51.024;13.826;2023-08-06T11:42:36;13.07;;;12.47;;
1276;SDS011;631;51.024;13.826;2023-08-06T11:45:02;14.10;;;13.40;;
1276;SDS011;631;51.024;13.826;2023-08-06T11:47:29;13.80;;;13.10;;
1276;SDS011;631;51.024;13.826;2023-08-06T11:49:55;13.77;;;13.07;;
1276;SDS011;631;51.024;13.826;2023-08-06T11:52:24;13.80;;;13.10;;
1276;SDS011;631;51.024;13.826;2023-08-06T11:57:35;13.83;;;13.13;;
1276;SDS011;631;51.024;13.826;2023-08-06T12:00:08;14.33;;;13.53;;
1276;SDS011;631;51.024;13.826;2023-08-06T12:02:35;12.67;;;12.07;;
1276;SDS011;631;51.024;13.826;2023-08-06T12:07:37;14.60;;;13.90;;
1276;SDS011;631;51.024;13.826;2023-08-06T12:10:04;14.33;;;13.63;;
1276;SDS011;631;51.024;13.826;2023-08-06T12:12:30;14.67;;;13.97;;
1276;SDS011;631;51.024;13.826;2023-08-06T12:14:56;14.50;;;13.80;;
1276;SDS011;631;51.024;13.826;2023-08-06T12:17:22;15.00;;;14.20;;
1276;SDS011;631;51.024;13.826;2023-08-06T12:19:49;14.70;;;14.00;;
1276;SDS011;631;51.024;13.826;2023-08-06T12:22:15;14.47;;;13.70;;
1276;SDS011;631;51.024;13.826;2023-08-06T12:24:45;14.60;;;13.80;;
1276;SDS011;631;51.024;13.826;2023-08-06T12:27:12;14.37;;;13.67;;
1276;SDS011;631;51.024;13.826;2023-08-06T12:29:41;13.77;;;13.07;;
1276;SDS011;631;51.024;13.826;2023-08-06T12:32:12;14.53;;;13.70;;
1276;SDS011;631;51.024;13.826;2023-08-06T12:34:39;14.57;;;13.67;;
1276;SDS011;631;51.024;13.826;2023-08-06T12:37:05;14.50;;;13.73;;
1276;SDS011;631;51.024;13.826;2023-08-06T12:39:34;14.97;;;14.17;;
1276;SDS011;631;51.024;13.826;2023-08-06T12:42:01;15.33;;;14.37;;
1276;SDS011;631;51.024;13.826;2023-08-06T12:44:27;13.50;;;12.80;;
1276;SDS011;631;51.024;13.826;2023-08-06T12:46:53;14.30;;;13.60;;
1276;SDS011;631;51.024;13.826;2023-08-06T12:49:19;14.70;;;13.90;;
1276;SDS011;631;51.024;13.826;2023-08-06T12:51:49;14.77;;;14.00;;
1276;SDS011;631;51.024;13.826;2023-08-06T12:54:18;13.77;;;13.10;;
1276;SDS011;631;51.024;13.826;2023-08-06T12:56:46;14.10;;;13.27;;
1276;SDS011;631;51.024;13.826;2023-08-06T12:59:15;13.00;;;12.17;;
1276;SDS011;631;51.024;13.826;2023-08-06T13:01:42;14.67;;;13.97;;
1276;SDS011;631;51.024;13.826;2023-08-06T13:04:08;15.03;;;14.23;;
1276;SDS011;631;51.024;13.826;2023-08-06T13:06:33;14.83;;;13.97;;
1276;SDS011;631;51.024;13.826;2023-08-06T13:09:05;14.53;;;13.77;;
1276;SDS011;631;51.024;13.826;2023-08-06T13:11:33;16.10;;;15.30;;
1276;SDS011;631;51.024;13.826;2023-08-06T13:14:09;14.90;;;14.20;;
1276;SDS011;631;51.024;13.826;2023-08-06T13:16:37;13.90;;;13.20;;
1276;SDS011;631;51.024;13.826;2023-08-06T13:19:04;16.30;;;15.50;;
1276;SDS011;631;51.024;13.826;2023-08-06T13:21:34;15.23;;;14.47;;
1276;SDS011;631;51.024;13.826;2023-08-06T13:24:06;14.30;;;13.60;;
1276;SDS011;631;51.024;13.826;2023-08-06T13:26:32;15.17;;;14.47;;
1276;SDS011;631;51.024;13.826;2023-08-06T13:28:58;13.60;;;13.00;;
1276;SDS011;631;51.024;13.826;2023-08-06T13:31:24;15.50;;;14.43;;
1276;SDS011;631;51.024;13.826;2023-08-06T13:33:51;14.67;;;13.97;;
1276;SDS011;631;51.024;13.826;2023-08-06T13:36:19;13.60;;;12.87;;
1276;SDS011;631;51.024;13.826;2023-08-06T13:38:44;12.67;;;12.07;;
1276;SDS011;631;51.024;13.826;2023-08-06T13:41:10;14.87;;;14.17;;
1276;SDS011;631;51.024;13.826;2023-08-06T13:43:36;13.30;;;12.60;;
1276;SDS011;631;51.024;13.826;2023-08-06T13:46:01;13.70;;;13.00;;
1276;SDS011;631;51.024;13.826;2023-08-06T13:48:27;13.70;;;13.10;;
1276;SDS011;631;51.024;13.826;2023-08-06T13:50:52;14.30;;;13.60;;
1276;SDS011;631;51.024;13.826;2023-08-06T13:53:18;14.00;;;13.30;;
1276;SDS011;631;51.024;13.826;2023-08-06T13:55:44;15.10;;;14.30;;
1276;SDS011;631;51.024;13.826;2023-08-06T13:58:09;13.17;;;12.57;;
1276;SDS011;631;51.024;13.826;2023-08-06T14:00:35;14.63;;;13.93;;
1276;SDS011;631;51.024;13.826;2023-08-06T14:03:01;14.70;;;14.00;;
1276;SDS011;631;51.024;13.826;2023-08-06T14:05:27;14.80;;;14.10;;
1276;SDS011;631;51.024;13.826;2023-08-06T14:07:53;14.30;;;13.60;;
1276;SDS011;631;51.024;13.826;2023-08-06T14:10:18;14.33;;;13.73;;
1276;SDS011;631;51.024;13.826;2023-08-06T14:12:44;13.37;;;12.77;;
1276;SDS011;631;51.024;13.826;2023-08-06T14:15:10;14.83;;;14.13;;
1276;SDS011;631;51.024;13.826;2023-08-06T14:17:36;12.97;;;12.37;;
1276;SDS011;631;51.024;13.826;2023-08-06T14:20:03;13.93;;;13.33;;
1276;SDS011;631;51.024;13.826;2023-08-06T14:22:29;13.70;;;13.00;;
1276;SDS011;631;51.024;13.826;2023-08-06T14:24:56;13.27;;;12.63;;
1276;SDS011;631;51.024;13.826;2023-08-06T14:27:22;13.90;;;13.30;;
1276;SDS011;631;51.024;13.826;2023-08-06T14:29:48;13.87;;;13.07;;
1276;SDS011;631;51.024;13.826;2023-08-06T14:32:14;13.03;;;12.43;;
1276;SDS011;631;51.024;13.826;2023-08-06T14:34:42;13.10;;;12.50;;
1276;SDS011;631;51.024;13.826;2023-08-06T14:37:09;13.37;;;12.77;;
1276;SDS011;631;51.024;13.826;2023-08-06T14:39:35;12.63;;;12.13;;
1276;SDS011;631;51.024;13.826;2023-08-06T14:42:02;12.80;;;12.20;;
1276;SDS011;631;51.024;13.826;2023-08-06T14:44:30;12.70;;;12.07;;
1276;SDS011;631;51.024;13.826;2023-08-06T14:46:55;13.47;;;12.87;;
1276;SDS011;631;51.024;13.826;2023-08-06T14:49:21;14.17;;;13.47;;
1276;SDS011;631;51.024;13.826;2023-08-06T14:51:47;14.77;;;14.07;;
1276;SDS011;631;51.024;13.826;2023-08-06T14:54:12;14.53;;;13.80;;